DLH742 EDDM-RJBB
Flight info
| Callsign | DLH742 |
|---|---|
| Flight time | N/A |
| Altitude | 23000 |
| Route | KIRDI2Q KIRDI DCT BUWOQ DCT OBFEZ/N0477F350 DCT STEIN DCT TEGRI/N0479F370 DCT DINRO DCT UDROS UM859 KARDE UN644 ROLIN DCT TAGAR DCT BT DCT BARAD M747 SUBUT T916 LEYLA N161 GASBI/K0885F370 N161 TITIL/K0889F390 N161 SARIN/K0889S1190 A368 FKG W188 LIKMI W270 BOTKI/K0887S1250 W270 DKO W69 HUR B339 LADIX W34 VAPGU W100 ORAVA W201 UNSEK A326 DONVO G597 AGAVO/N0472F410 Y644 EGOBA Y697 LANAT Y597 MIHOU Y361 SAEKI Y36 ATMUG |
| Aircraft | A359/H-SADE2E3GHIJ1J2J3J4J5M1P2RWXYZ/LB1D1 |
Departure
| Time | N/A |
|---|---|
| Airport | Munich Airport (EDDM) |
Arrival
| Time | 2026-04-28 22:22 |
|---|---|
| Airport | Kansai International Airport (RJBB) |
| Time | Latitude | Longitude | Altitude | Speed | Heading |
|---|---|---|---|---|---|
| 2026-04-28 21:25 | 37.30128 | 127.11932 | 41162 ft | 575 kts | 40° |
| 2026-04-28 21:25 | 37.32766 | 127.15753 | 41158 ft | 580 kts | 45° |
| 2026-04-28 21:26 | 37.35021 | 127.20012 | 41167 ft | 591 kts | 57° |
| 2026-04-28 21:26 | 37.36635 | 127.24733 | 41144 ft | 597 kts | 71° |
| 2026-04-28 21:26 | 37.37473 | 127.29859 | 41191 ft | 599 kts | 85° |
| 2026-04-28 21:26 | 37.37624 | 127.35101 | 41163 ft | 599 kts | 93° |
| 2026-04-28 21:27 | 37.37014 | 127.45498 | 41151 ft | 600 kts | 99° |
| 2026-04-28 21:27 | 37.36040 | 127.55952 | 41148 ft | 600 kts | 99° |
| 2026-04-28 21:28 | 37.35155 | 127.66346 | 41136 ft | 601 kts | 98° |
| 2026-04-28 21:28 | 37.34358 | 127.76837 | 41127 ft | 601 kts | 98° |
| 2026-04-28 21:29 | 37.33589 | 127.87288 | 41130 ft | 600 kts | 98° |
| 2026-04-28 21:29 | 37.32808 | 127.97693 | 41115 ft | 601 kts | 98° |
| 2026-04-28 21:30 | 37.32009 | 128.08151 | 41130 ft | 600 kts | 98° |
| 2026-04-28 21:30 | 37.31196 | 128.18604 | 41132 ft | 600 kts | 98° |
| 2026-04-28 21:31 | 37.30373 | 128.29055 | 41138 ft | 600 kts | 98° |
| 2026-04-28 21:31 | 37.29548 | 128.39444 | 41137 ft | 600 kts | 98° |
| 2026-04-28 21:32 | 37.28708 | 128.49891 | 41142 ft | 600 kts | 98° |
| 2026-04-28 21:32 | 37.27854 | 128.60302 | 41149 ft | 607 kts | 98° |
| 2026-04-28 21:33 | 37.26981 | 128.70927 | 41139 ft | 612 kts | 98° |
| 2026-04-28 21:33 | 37.26099 | 128.81595 | 41149 ft | 614 kts | 98° |
| 2026-04-28 21:34 | 37.25208 | 128.92259 | 41136 ft | 613 kts | 98° |
| 2026-04-28 21:34 | 37.24313 | 129.02832 | 41150 ft | 611 kts | 98° |
| 2026-04-28 21:35 | 37.23400 | 129.13463 | 41132 ft | 611 kts | 98° |
| 2026-04-28 21:35 | 37.22481 | 129.24081 | 41150 ft | 614 kts | 99° |
| 2026-04-28 21:36 | 37.21552 | 129.34709 | 41146 ft | 614 kts | 99° |
| 2026-04-28 21:36 | 37.20602 | 129.45404 | 41143 ft | 614 kts | 99° |
| 2026-04-28 21:37 | 37.19653 | 129.56001 | 41144 ft | 614 kts | 99° |
| 2026-04-28 21:37 | 37.18690 | 129.66648 | 41144 ft | 613 kts | 99° |
| 2026-04-28 21:38 | 37.17891 | 129.75416 | 41141 ft | 613 kts | 99° |
| 2026-04-28 21:38 | 37.16925 | 129.82436 | 41128 ft | 607 kts | 110° |
| 2026-04-28 21:38 | 37.15486 | 129.87362 | 41135 ft | 598 kts | 121° |
| 2026-04-28 21:39 | 37.11593 | 129.96430 | 41133 ft | 589 kts | 129° |
| 2026-04-28 21:39 | 37.07899 | 130.03694 | 41108 ft | 587 kts | 131° |
| 2026-04-28 21:40 | 37.03483 | 130.12230 | 41134 ft | 587 kts | 130° |
| 2026-04-28 21:40 | 36.99112 | 130.20877 | 41137 ft | 586 kts | 130° |
| 2026-04-28 21:41 | 36.94821 | 130.29480 | 41125 ft | 585 kts | 129° |
| 2026-04-28 21:41 | 36.90511 | 130.38125 | 41132 ft | 585 kts | 130° |
| 2026-04-28 21:42 | 36.86193 | 130.46751 | 41129 ft | 584 kts | 130° |
| 2026-04-28 21:42 | 36.81867 | 130.55360 | 41132 ft | 584 kts | 130° |
| 2026-04-28 21:43 | 36.77564 | 130.63901 | 41124 ft | 584 kts | 130° |
| 2026-04-28 21:43 | 36.73227 | 130.72497 | 41124 ft | 584 kts | 130° |
| 2026-04-28 21:44 | 36.68890 | 130.81064 | 41127 ft | 584 kts | 130° |
| 2026-04-28 21:44 | 36.64570 | 130.89567 | 41125 ft | 584 kts | 130° |
| 2026-04-28 21:45 | 36.60218 | 130.98119 | 41117 ft | 583 kts | 130° |
| 2026-04-28 21:45 | 36.55867 | 131.06649 | 41116 ft | 583 kts | 130° |
| 2026-04-28 21:46 | 36.51508 | 131.15173 | 41112 ft | 583 kts | 129° |
| 2026-04-28 21:46 | 36.47178 | 131.23621 | 41107 ft | 583 kts | 130° |
| 2026-04-28 21:47 | 36.42810 | 131.32118 | 41119 ft | 583 kts | 130° |
| 2026-04-28 21:47 | 36.38437 | 131.40606 | 41119 ft | 582 kts | 130° |
| 2026-04-28 21:48 | 36.34136 | 131.49054 | 41119 ft | 583 kts | 128° |
| 2026-04-28 21:48 | 36.29890 | 131.57668 | 41109 ft | 584 kts | 128° |
| 2026-04-28 21:49 | 36.25659 | 131.66255 | 41110 ft | 583 kts | 128° |
| 2026-04-28 21:49 | 36.21404 | 131.74820 | 41110 ft | 583 kts | 128° |
| 2026-04-28 21:50 | 36.17157 | 131.83320 | 41109 ft | 583 kts | 128° |
| 2026-04-28 21:50 | 36.12897 | 131.91817 | 41105 ft | 582 kts | 129° |
| 2026-04-28 21:51 | 36.08622 | 132.00340 | 41093 ft | 582 kts | 128° |
| 2026-04-28 21:51 | 36.04331 | 132.08858 | 41105 ft | 582 kts | 129° |
| 2026-04-28 21:52 | 36.00066 | 132.17294 | 41105 ft | 581 kts | 129° |
| 2026-04-28 21:52 | 35.96024 | 132.25274 | 41103 ft | 581 kts | 129° |
| 2026-04-28 21:53 | 35.91823 | 132.33553 | 41095 ft | 580 kts | 129° |
| 2026-04-28 21:53 | 35.87567 | 132.41923 | 41082 ft | 580 kts | 129° |
| 2026-04-28 21:54 | 35.83272 | 132.50347 | 41100 ft | 579 kts | 129° |
| 2026-04-28 21:54 | 35.78970 | 132.58763 | 41100 ft | 579 kts | 129° |
| 2026-04-28 21:55 | 35.74703 | 132.67094 | 40774 ft | 579 kts | 129° |
| 2026-04-28 21:55 | 35.70402 | 132.75524 | 40683 ft | 583 kts | 128° |
| 2026-04-28 21:56 | 35.66090 | 132.83997 | 40664 ft | 582 kts | 128° |
| 2026-04-28 21:56 | 35.61786 | 132.92423 | 40653 ft | 582 kts | 128° |
| 2026-04-28 21:57 | 35.57491 | 133.00803 | 40620 ft | 579 kts | 129° |
| 2026-04-28 21:57 | 35.55353 | 133.04973 | 40112 ft | 574 kts | 128° |
| 2026-04-28 21:57 | 35.53293 | 133.09202 | 39318 ft | 580 kts | 121° |
| 2026-04-28 21:58 | 35.51494 | 133.13660 | 38532 ft | 584 kts | 121° |
| 2026-04-28 21:58 | 35.49755 | 133.18160 | 37774 ft | 584 kts | 120° |
| 2026-04-28 21:58 | 35.48070 | 133.22636 | 37093 ft | 582 kts | 119° |
| 2026-04-28 21:58 | 35.46388 | 133.27159 | 36395 ft | 580 kts | 119° |
| 2026-04-28 21:59 | 35.44714 | 133.31669 | 35679 ft | 579 kts | 119° |
| 2026-04-28 21:59 | 35.43038 | 133.36168 | 34950 ft | 579 kts | 120° |
| 2026-04-28 21:59 | 35.41354 | 133.40668 | 34236 ft | 578 kts | 120° |
| 2026-04-28 22:00 | 35.38010 | 133.49560 | 33037 ft | 568 kts | 120° |
| 2026-04-28 22:00 | 35.36383 | 133.53875 | 32493 ft | 563 kts | 120° |
| 2026-04-28 22:00 | 35.34743 | 133.58214 | 31934 ft | 558 kts | 120° |
| 2026-04-28 22:00 | 35.33113 | 133.62517 | 31391 ft | 554 kts | 120° |
| 2026-04-28 22:01 | 35.31492 | 133.66792 | 30840 ft | 549 kts | 121° |
| 2026-04-28 22:01 | 35.29882 | 133.71025 | 30309 ft | 545 kts | 121° |
| 2026-04-28 22:01 | 35.28304 | 133.75171 | 29727 ft | 541 kts | 121° |
| 2026-04-28 22:01 | 35.26722 | 133.79323 | 29166 ft | 536 kts | 121° |
| 2026-04-28 22:02 | 35.25150 | 133.83442 | 28634 ft | 530 kts | 121° |
| 2026-04-28 22:02 | 35.23593 | 133.87513 | 28106 ft | 525 kts | 121° |
| 2026-04-28 22:02 | 35.22050 | 133.91552 | 27601 ft | 520 kts | 121° |
| 2026-04-28 22:02 | 35.20500 | 133.95450 | 27070 ft | 511 kts | 127° |
| 2026-04-28 22:03 | 35.18425 | 133.98874 | 26539 ft | 487 kts | 144° |
| 2026-04-28 22:03 | 35.15852 | 134.01342 | 26071 ft | 457 kts | 161° |
| 2026-04-28 22:03 | 35.13003 | 134.02755 | 25630 ft | 430 kts | 176° |
| 2026-04-28 22:03 | 35.10119 | 134.03583 | 25171 ft | 418 kts | 180° |
| 2026-04-28 22:04 | 35.07309 | 134.04191 | 24748 ft | 410 kts | 182° |
| 2026-04-28 22:04 | 35.04511 | 134.04707 | 24325 ft | 404 kts | 183° |
| 2026-04-28 22:04 | 35.01740 | 134.05194 | 23901 ft | 400 kts | 184° |
| 2026-04-28 22:04 | 34.98989 | 134.05684 | 23444 ft | 396 kts | 183° |
| 2026-04-28 22:05 | 34.96271 | 134.06186 | 22884 ft | 394 kts | 182° |
| 2026-04-28 22:05 | 34.93599 | 134.06695 | 22392 ft | 390 kts | 182° |
| 2026-04-28 22:05 | 34.90926 | 134.07155 | 21897 ft | 385 kts | 184° |
| 2026-04-28 22:05 | 34.88272 | 134.07568 | 21402 ft | 381 kts | 184° |
| 2026-04-28 22:06 | 34.85643 | 134.07963 | 20911 ft | 379 kts | 184° |
| 2026-04-28 22:06 | 34.83068 | 134.08352 | 20428 ft | 376 kts | 184° |
| 2026-04-28 22:06 | 34.80473 | 134.08752 | 19935 ft | 374 kts | 184° |
| 2026-04-28 22:06 | 34.77896 | 134.09158 | 19438 ft | 371 kts | 184° |
| 2026-04-28 22:07 | 34.75348 | 134.09569 | 18952 ft | 366 kts | 184° |
| 2026-04-28 22:07 | 34.72825 | 134.09973 | 18473 ft | 362 kts | 184° |
| 2026-04-28 22:07 | 34.70358 | 134.10365 | 17956 ft | 360 kts | 184° |
| 2026-04-28 22:07 | 34.67882 | 134.10760 | 17461 ft | 358 kts | 183° |
| 2026-04-28 22:08 | 34.65422 | 134.11156 | 16974 ft | 356 kts | 183° |
| 2026-04-28 22:08 | 34.62973 | 134.11549 | 16489 ft | 353 kts | 183° |
| 2026-04-28 22:08 | 34.60536 | 134.11944 | 16027 ft | 352 kts | 182° |
| 2026-04-28 22:08 | 34.58126 | 134.12694 | 15527 ft | 366 kts | 167° |
| 2026-04-28 22:09 | 34.55970 | 134.14392 | 15016 ft | 386 kts | 144° |
| 2026-04-28 22:09 | 34.54373 | 134.17066 | 14488 ft | 401 kts | 122° |
| 2026-04-28 22:09 | 34.53317 | 134.20215 | 13940 ft | 404 kts | 115° |
| 2026-04-28 22:09 | 34.52363 | 134.23430 | 13342 ft | 403 kts | 115° |
| 2026-04-28 22:10 | 34.51409 | 134.26614 | 12746 ft | 400 kts | 115° |
| 2026-04-28 22:10 | 34.50443 | 134.29779 | 12200 ft | 396 kts | 115° |
| 2026-04-28 22:10 | 34.49491 | 134.32860 | 11660 ft | 393 kts | 115° |
| 2026-04-28 22:10 | 34.48527 | 134.35950 | 11113 ft | 388 kts | 115° |
| 2026-04-28 22:11 | 34.47575 | 134.38992 | 10575 ft | 384 kts | 114° |
| 2026-04-28 22:11 | 34.46638 | 134.41987 | 10269 ft | 373 kts | 114° |
| 2026-04-28 22:11 | 34.45741 | 134.44855 | 10136 ft | 352 kts | 115° |
| 2026-04-28 22:11 | 34.44911 | 134.47515 | 9988 ft | 324 kts | 115° |
| 2026-04-28 22:12 | 34.44112 | 134.50051 | 9666 ft | 322 kts | 115° |
| 2026-04-28 22:12 | 34.43317 | 134.52554 | 9280 ft | 321 kts | 115° |
| 2026-04-28 22:12 | 34.42517 | 134.55076 | 8931 ft | 319 kts | 114° |
| 2026-04-28 22:12 | 34.41724 | 134.57582 | 8569 ft | 316 kts | 114° |
| 2026-04-28 22:13 | 34.40936 | 134.60069 | 8233 ft | 314 kts | 114° |
| 2026-04-28 22:13 | 34.40166 | 134.62497 | 7884 ft | 311 kts | 114° |
| 2026-04-28 22:13 | 34.39390 | 134.64944 | 7554 ft | 309 kts | 114° |
| 2026-04-28 22:13 | 34.38621 | 134.67367 | 7222 ft | 307 kts | 114° |
| 2026-04-28 22:14 | 34.37855 | 134.69779 | 6902 ft | 305 kts | 113° |
| 2026-04-28 22:14 | 34.37107 | 134.72135 | 6616 ft | 303 kts | 113° |
| 2026-04-28 22:14 | 34.36355 | 134.74516 | 6333 ft | 300 kts | 112° |
| 2026-04-28 22:14 | 34.35604 | 134.76875 | 6037 ft | 298 kts | 113° |
| 2026-04-28 22:15 | 34.34858 | 134.79209 | 5746 ft | 297 kts | 112° |
| 2026-04-28 22:15 | 34.34115 | 134.81536 | 5458 ft | 295 kts | 112° |
| 2026-04-28 22:15 | 34.33386 | 134.83818 | 5191 ft | 292 kts | 112° |
| 2026-04-28 22:15 | 34.32654 | 134.86107 | 4907 ft | 291 kts | 112° |
| 2026-04-28 22:16 | 34.31928 | 134.88384 | 4622 ft | 289 kts | 112° |
| 2026-04-28 22:16 | 34.31202 | 134.90652 | 4334 ft | 287 kts | 112° |
| 2026-04-28 22:16 | 34.30599 | 134.92930 | 4079 ft | 284 kts | 99° |
| 2026-04-28 22:16 | 34.30678 | 134.95289 | 3942 ft | 281 kts | 76° |
| 2026-04-28 22:17 | 34.31153 | 134.97570 | 3683 ft | 276 kts | 72° |
| 2026-04-28 22:17 | 34.31657 | 134.99757 | 3536 ft | 264 kts | 72° |
| 2026-04-28 22:17 | 34.32131 | 135.01830 | 3330 ft | 254 kts | 72° |
| 2026-04-28 22:17 | 34.32591 | 135.03865 | 3083 ft | 247 kts | 73° |
| 2026-04-28 22:18 | 34.33026 | 135.05809 | 2796 ft | 231 kts | 73° |
| 2026-04-28 22:18 | 34.33437 | 135.07634 | 2536 ft | 217 kts | 73° |
| 2026-04-28 22:18 | 34.33819 | 135.09348 | 2279 ft | 205 kts | 73° |
| 2026-04-28 22:18 | 34.34173 | 135.10938 | 2124 ft | 188 kts | 73° |
| 2026-04-28 22:19 | 34.34641 | 135.12309 | 2044 ft | 167 kts | 57° |
| 2026-04-28 22:19 | 34.35305 | 135.13365 | 1952 ft | 151 kts | 49° |
| 2026-04-28 22:19 | 34.35956 | 135.14345 | 1804 ft | 146 kts | 51° |
| 2026-04-28 22:19 | 34.36576 | 135.15271 | 1607 ft | 137 kts | 50° |
| 2026-04-28 22:20 | 34.37160 | 135.16138 | 1416 ft | 129 kts | 50° |
| 2026-04-28 22:20 | 34.37730 | 135.16986 | 1256 ft | 130 kts | 49° |
| 2026-04-28 22:20 | 34.38308 | 135.17838 | 1082 ft | 131 kts | 50° |
| 2026-04-28 22:20 | 34.38889 | 135.18686 | 935 ft | 130 kts | 49° |
| 2026-04-28 22:21 | 34.39478 | 135.19530 | 745 ft | 132 kts | 49° |
| 2026-04-28 22:21 | 34.40045 | 135.20388 | 572 ft | 128 kts | 51° |
| 2026-04-28 22:21 | 34.40605 | 135.21213 | 418 ft | 125 kts | 51° |
| 2026-04-28 22:21 | 34.41149 | 135.22020 | 279 ft | 123 kts | 50° |
| 2026-04-28 22:22 | 34.41679 | 135.22835 | 99 ft | 123 kts | 50° |
| 2026-04-28 22:22 | 34.42205 | 135.23622 | 24 ft | 112 kts | 51° |
| 2026-04-28 22:22 | 34.42601 | 135.24216 | 23 ft | 71 kts | 52° |
| 2026-04-28 22:22 | 34.42829 | 135.24555 | 22 ft | 41 kts | 50° |
| 2026-04-28 22:23 | 34.42984 | 135.24759 | 22 ft | 28 kts | 39° |
| 2026-04-28 22:23 | 34.43142 | 135.24863 | 22 ft | 18 kts | 21° |
| 2026-04-28 22:23 | 34.43162 | 135.24872 | 24 ft | 0 kts | 21° |
| 2026-04-28 22:23 | 34.43194 | 135.24878 | 23 ft | 10 kts | 358° |
| 2026-04-28 22:24 | 34.43225 | 135.24821 | 26 ft | 9 kts | 264° |
| 2026-04-28 22:24 | 34.43180 | 135.24730 | 30 ft | 18 kts | 231° |
| 2026-04-28 22:24 | 34.43094 | 135.24602 | 27 ft | 20 kts | 231° |
| 2026-04-28 22:24 | 34.43090 | 135.24481 | 27 ft | 16 kts | 312° |
| 2026-04-28 22:25 | 34.43162 | 135.24433 | 30 ft | 9 kts | 358° |
| 2026-04-28 22:25 | 34.43221 | 135.24415 | 29 ft | 10 kts | 320° |
| 2026-04-28 22:25 | 34.43254 | 135.24383 | 29 ft | 2 kts | 321° |
| 2026-04-28 22:25 | 34.43263 | 135.24374 | 29 ft | 0 kts | 321° |
| 2026-04-28 22:26 | 34.43263 | 135.24373 | 29 ft | 0 kts | 321° |
| 2026-04-28 22:26 | 34.43264 | 135.24373 | 29 ft | 0 kts | 321° |